sensor_id;sensor_type;location;lat;lon;timestamp;P1;durP1;ratioP1;P2;durP2;ratioP2
69325;SDS011;56471;53.508;49.252;2023-03-01T00:01:58;6.40;;;4.28;;
69325;SDS011;56471;53.508;49.252;2023-03-01T00:04:24;5.82;;;4.00;;
69325;SDS011;56471;53.508;49.252;2023-03-01T00:06:50;5.90;;;4.07;;
69325;SDS011;56471;53.508;49.252;2023-03-01T00:09:15;6.13;;;4.22;;
69325;SDS011;56471;53.508;49.252;2023-03-01T00:11:42;5.28;;;3.88;;
69325;SDS011;56471;53.508;49.252;2023-03-01T00:14:08;6.00;;;3.92;;
69325;SDS011;56471;53.508;49.252;2023-03-01T00:16:35;5.85;;;4.03;;
69325;SDS011;56471;53.508;49.252;2023-03-01T00:19:04;5.32;;;3.80;;
69325;SDS011;56471;53.508;49.252;2023-03-01T00:21:30;5.93;;;4.10;;
69325;SDS011;56471;53.508;49.252;2023-03-01T00:23:56;4.85;;;3.65;;
69325;SDS011;56471;53.508;49.252;2023-03-01T00:26:23;6.50;;;4.25;;
69325;SDS011;56471;53.508;49.252;2023-03-01T00:28:50;4.75;;;3.50;;
69325;SDS011;56471;53.508;49.252;2023-03-01T00:31:18;5.55;;;4.25;;
69325;SDS011;56471;53.508;49.252;2023-03-01T00:33:46;4.32;;;3.33;;
69325;SDS011;56471;53.508;49.252;2023-03-01T00:36:12;6.38;;;4.40;;
69325;SDS011;56471;53.508;49.252;2023-03-01T00:38:40;8.40;;;4.88;;
69325;SDS011;56471;53.508;49.252;2023-03-01T00:41:08;6.30;;;3.75;;
69325;SDS011;56471;53.508;49.252;2023-03-01T00:43:36;5.97;;;3.78;;
69325;SDS011;56471;53.508;49.252;2023-03-01T00:46:03;5.75;;;3.97;;
69325;SDS011;56471;53.508;49.252;2023-03-01T00:48:34;7.22;;;4.65;;
69325;SDS011;56471;53.508;49.252;2023-03-01T00:51:04;5.20;;;3.92;;
69325;SDS011;56471;53.508;49.252;2023-03-01T00:53:34;4.95;;;3.85;;
69325;SDS011;56471;53.508;49.252;2023-03-01T00:56:00;5.65;;;4.07;;
69325;SDS011;56471;53.508;49.252;2023-03-01T00:58:26;5.68;;;4.03;;
69325;SDS011;56471;53.508;49.252;2023-03-01T01:00:52;6.18;;;3.88;;
69325;SDS011;56471;53.508;49.252;2023-03-01T01:03:18;4.53;;;3.60;;
69325;SDS011;56471;53.508;49.252;2023-03-01T01:05:44;5.18;;;3.63;;
69325;SDS011;56471;53.508;49.252;2023-03-01T01:08:10;6.38;;;3.70;;
69325;SDS011;56471;53.508;49.252;2023-03-01T01:10:35;5.32;;;4.00;;
69325;SDS011;56471;53.508;49.252;2023-03-01T01:13:01;5.65;;;3.88;;
69325;SDS011;56471;53.508;49.252;2023-03-01T01:15:27;4.65;;;3.50;;
69325;SDS011;56471;53.508;49.252;2023-03-01T01:17:52;5.70;;;3.58;;
69325;SDS011;56471;53.508;49.252;2023-03-01T01:20:18;4.95;;;3.30;;
69325;SDS011;56471;53.508;49.252;2023-03-01T01:22:44;4.72;;;3.30;;
69325;SDS011;56471;53.508;49.252;2023-03-01T01:25:09;5.25;;;3.50;;
69325;SDS011;56471;53.508;49.252;2023-03-01T01:27:35;5.68;;;3.60;;
69325;SDS011;56471;53.508;49.252;2023-03-01T01:30:02;4.57;;;3.58;;
69325;SDS011;56471;53.508;49.252;2023-03-01T01:32:29;5.15;;;3.65;;
69325;SDS011;56471;53.508;49.252;2023-03-01T01:34:54;5.30;;;3.70;;
69325;SDS011;56471;53.508;49.252;2023-03-01T01:37:20;5.25;;;3.70;;
69325;SDS011;56471;53.508;49.252;2023-03-01T01:39:46;4.80;;;3.35;;
69325;SDS011;56471;53.508;49.252;2023-03-01T01:42:16;5.85;;;3.50;;
69325;SDS011;56471;53.508;49.252;2023-03-01T01:44:46;4.75;;;3.47;;
69325;SDS011;56471;53.508;49.252;2023-03-01T01:47:13;5.53;;;3.60;;
69325;SDS011;56471;53.508;49.252;2023-03-01T01:49:43;4.72;;;3.50;;
69325;SDS011;56471;53.508;49.252;2023-03-01T01:52:25;4.70;;;3.20;;
69325;SDS011;56471;53.508;49.252;2023-03-01T01:54:57;5.22;;;3.50;;
69325;SDS011;56471;53.508;49.252;2023-03-01T01:57:49;5.10;;;3.63;;
69325;SDS011;56471;53.508;49.252;2023-03-01T02:00:22;4.45;;;3.42;;
69325;SDS011;56471;53.508;49.252;2023-03-01T02:02:52;4.85;;;3.58;;
69325;SDS011;56471;53.508;49.252;2023-03-01T02:05:54;4.70;;;3.38;;
69325;SDS011;56471;53.508;49.252;2023-03-01T02:08:27;5.13;;;3.38;;
69325;SDS011;56471;53.508;49.252;2023-03-01T02:10:55;4.47;;;3.40;;
69325;SDS011;56471;53.508;49.252;2023-03-01T02:13:23;4.43;;;3.33;;
69325;SDS011;56471;53.508;49.252;2023-03-01T02:15:48;4.55;;;3.33;;
69325;SDS011;56471;53.508;49.252;2023-03-01T02:18:16;4.60;;;3.40;;
69325;SDS011;56471;53.508;49.252;2023-03-01T02:23:33;4.35;;;3.08;;
69325;SDS011;56471;53.508;49.252;2023-03-01T02:26:47;4.43;;;3.20;;
69325;SDS011;56471;53.508;49.252;2023-03-01T02:28:54;4.50;;;3.15;;
69325;SDS011;56471;53.508;49.252;2023-03-01T02:31:20;4.05;;;3.35;;
69325;SDS011;56471;53.508;49.252;2023-03-01T02:34:05;4.00;;;3.15;;
69325;SDS011;56471;53.508;49.252;2023-03-01T02:36:37;6.05;;;3.20;;
69325;SDS011;56471;53.508;49.252;2023-03-01T02:39:07;5.63;;;3.53;;
69325;SDS011;56471;53.508;49.252;2023-03-01T02:41:39;4.47;;;3.35;;
69325;SDS011;56471;53.508;49.252;2023-03-01T02:44:08;4.35;;;3.10;;
69325;SDS011;56471;53.508;49.252;2023-03-01T02:46:33;3.88;;;2.95;;
69325;SDS011;56471;53.508;49.252;2023-03-01T02:49:21;4.90;;;3.65;;
69325;SDS011;56471;53.508;49.252;2023-03-01T02:55:27;4.88;;;3.35;;
69325;SDS011;56471;53.508;49.252;2023-03-01T02:57:46;4.63;;;3.28;;
69325;SDS011;56471;53.508;49.252;2023-03-01T03:00:20;5.65;;;3.30;;
69325;SDS011;56471;53.508;49.252;2023-03-01T03:02:51;3.95;;;2.95;;
69325;SDS011;56471;53.508;49.252;2023-03-01T03:05:19;4.20;;;3.20;;
69325;SDS011;56471;53.508;49.252;2023-03-01T03:07:48;4.85;;;3.38;;
69325;SDS011;56471;53.508;49.252;2023-03-01T03:10:16;4.68;;;3.53;;
69325;SDS011;56471;53.508;49.252;2023-03-01T03:12:50;4.43;;;3.15;;
69325;SDS011;56471;53.508;49.252;2023-03-01T03:15:20;4.47;;;3.28;;
69325;SDS011;56471;53.508;49.252;2023-03-01T03:17:47;4.88;;;3.55;;
69325;SDS011;56471;53.508;49.252;2023-03-01T03:20:15;4.25;;;3.03;;
69325;SDS011;56471;53.508;49.252;2023-03-01T03:22:47;4.25;;;3.00;;
69325;SDS011;56471;53.508;49.252;2023-03-01T03:25:14;5.15;;;3.17;;
69325;SDS011;56471;53.508;49.252;2023-03-01T03:27:41;3.75;;;2.88;;
69325;SDS011;56471;53.508;49.252;2023-03-01T03:30:10;4.03;;;3.05;;
69325;SDS011;56471;53.508;49.252;2023-03-01T03:32:39;3.95;;;3.08;;
69325;SDS011;56471;53.508;49.252;2023-03-01T03:35:05;4.57;;;3.17;;
69325;SDS011;56471;53.508;49.252;2023-03-01T03:37:40;4.65;;;3.10;;
69325;SDS011;56471;53.508;49.252;2023-03-01T03:40:25;3.63;;;2.95;;
69325;SDS011;56471;53.508;49.252;2023-03-01T03:42:51;5.05;;;3.38;;
69325;SDS011;56471;53.508;49.252;2023-03-01T03:45:17;4.25;;;3.13;;
69325;SDS011;56471;53.508;49.252;2023-03-01T03:47:43;4.35;;;3.00;;
69325;SDS011;56471;53.508;49.252;2023-03-01T03:50:10;4.72;;;3.25;;
69325;SDS011;56471;53.508;49.252;2023-03-01T03:52:37;4.30;;;2.97;;
69325;SDS011;56471;53.508;49.252;2023-03-01T03:55:03;5.22;;;3.38;;
69325;SDS011;56471;53.508;49.252;2023-03-01T03:57:39;5.55;;;3.33;;
69325;SDS011;56471;53.508;49.252;2023-03-01T04:00:06;4.57;;;3.25;;
69325;SDS011;56471;53.508;49.252;2023-03-01T04:02:40;4.07;;;3.00;;
69325;SDS011;56471;53.508;49.252;2023-03-01T04:05:09;4.88;;;3.20;;
69325;SDS011;56471;53.508;49.252;2023-03-01T04:07:37;5.03;;;3.40;;
69325;SDS011;56471;53.508;49.252;2023-03-01T04:10:03;4.40;;;2.90;;
69325;SDS011;56471;53.508;49.252;2023-03-01T04:12:31;3.88;;;3.05;;
69325;SDS011;56471;53.508;49.252;2023-03-01T04:14:59;4.60;;;3.13;;
69325;SDS011;56471;53.508;49.252;2023-03-01T04:17:25;4.05;;;3.28;;
69325;SDS011;56471;53.508;49.252;2023-03-01T04:19:51;4.07;;;3.10;;
69325;SDS011;56471;53.508;49.252;2023-03-01T04:22:17;5.05;;;3.10;;
69325;SDS011;56471;53.508;49.252;2023-03-01T04:24:43;4.97;;;3.33;;
69325;SDS011;56471;53.508;49.252;2023-03-01T04:27:10;3.97;;;3.00;;
69325;SDS011;56471;53.508;49.252;2023-03-01T04:29:36;4.10;;;3.00;;
69325;SDS011;56471;53.508;49.252;2023-03-01T04:32:02;4.00;;;3.00;;
69325;SDS011;56471;53.508;49.252;2023-03-01T04:34:28;4.07;;;3.05;;
69325;SDS011;56471;53.508;49.252;2023-03-01T04:36:54;4.45;;;3.05;;
69325;SDS011;56471;53.508;49.252;2023-03-01T04:39:20;5.53;;;3.13;;
69325;SDS011;56471;53.508;49.252;2023-03-01T04:41:46;3.75;;;3.00;;
69325;SDS011;56471;53.508;49.252;2023-03-01T04:44:12;6.35;;;3.47;;
69325;SDS011;56471;53.508;49.252;2023-03-01T04:46:38;4.00;;;2.92;;
69325;SDS011;56471;53.508;49.252;2023-03-01T04:49:04;5.53;;;3.33;;
69325;SDS011;56471;53.508;49.252;2023-03-01T04:51:30;3.80;;;3.00;;
69325;SDS011;56471;53.508;49.252;2023-03-01T04:53:57;4.35;;;3.13;;
69325;SDS011;56471;53.508;49.252;2023-03-01T04:56:23;4.18;;;3.03;;
69325;SDS011;56471;53.508;49.252;2023-03-01T04:58:49;5.28;;;3.00;;
69325;SDS011;56471;53.508;49.252;2023-03-01T05:01:19;3.80;;;3.15;;
69325;SDS011;56471;53.508;49.252;2023-03-01T05:03:49;4.30;;;2.90;;
69325;SDS011;56471;53.508;49.252;2023-03-01T05:06:16;4.57;;;3.03;;
69325;SDS011;56471;53.508;49.252;2023-03-01T05:08:43;5.40;;;3.40;;
69325;SDS011;56471;53.508;49.252;2023-03-01T05:11:09;4.10;;;3.03;;
69325;SDS011;56471;53.508;49.252;2023-03-01T05:13:36;3.90;;;2.88;;
69325;SDS011;56471;53.508;49.252;2023-03-01T05:16:03;4.10;;;2.72;;
69325;SDS011;56471;53.508;49.252;2023-03-01T05:18:30;4.20;;;3.10;;
69325;SDS011;56471;53.508;49.252;2023-03-01T05:21:04;4.32;;;2.72;;
69325;SDS011;56471;53.508;49.252;2023-03-01T05:23:32;3.83;;;3.03;;
69325;SDS011;56471;53.508;49.252;2023-03-01T05:25:59;4.40;;;3.25;;
69325;SDS011;56471;53.508;49.252;2023-03-01T05:28:26;3.65;;;2.72;;
69325;SDS011;56471;53.508;49.252;2023-03-01T05:30:53;3.58;;;2.58;;
69325;SDS011;56471;53.508;49.252;2023-03-01T05:33:19;4.25;;;3.00;;
69325;SDS011;56471;53.508;49.252;2023-03-01T05:35:47;3.30;;;2.65;;
69325;SDS011;56471;53.508;49.252;2023-03-01T05:38:13;3.63;;;2.60;;
69325;SDS011;56471;53.508;49.252;2023-03-01T05:40:43;3.90;;;3.03;;
69325;SDS011;56471;53.508;49.252;2023-03-01T05:43:11;4.70;;;3.05;;
69325;SDS011;56471;53.508;49.252;2023-03-01T05:45:38;5.03;;;2.70;;
69325;SDS011;56471;53.508;49.252;2023-03-01T05:48:06;3.70;;;2.70;;
69325;SDS011;56471;53.508;49.252;2023-03-01T05:50:33;3.50;;;2.58;;
69325;SDS011;56471;53.508;49.252;2023-03-01T05:53:02;3.83;;;2.80;;
69325;SDS011;56471;53.508;49.252;2023-03-01T05:55:33;3.67;;;2.47;;
69325;SDS011;56471;53.508;49.252;2023-03-01T05:58:00;3.35;;;2.63;;
69325;SDS011;56471;53.508;49.252;2023-03-01T06:00:27;3.15;;;2.70;;
69325;SDS011;56471;53.508;49.252;2023-03-01T06:02:55;3.60;;;2.72;;
69325;SDS011;56471;53.508;49.252;2023-03-01T06:05:21;3.42;;;2.53;;
69325;SDS011;56471;53.508;49.252;2023-03-01T06:07:47;3.40;;;2.50;;
69325;SDS011;56471;53.508;49.252;2023-03-01T06:10:14;3.85;;;2.88;;
69325;SDS011;56471;53.508;49.252;2023-03-01T06:12:40;3.10;;;2.30;;
69325;SDS011;56471;53.508;49.252;2023-03-01T06:15:07;3.42;;;2.47;;
69325;SDS011;56471;53.508;49.252;2023-03-01T06:17:37;2.90;;;2.20;;
69325;SDS011;56471;53.508;49.252;2023-03-01T06:20:06;3.67;;;2.55;;
69325;SDS011;56471;53.508;49.252;2023-03-01T06:22:35;3.15;;;2.30;;
69325;SDS011;56471;53.508;49.252;2023-03-01T06:25:01;2.92;;;2.35;;
69325;SDS011;56471;53.508;49.252;2023-03-01T06:27:27;3.45;;;2.60;;
69325;SDS011;56471;53.508;49.252;2023-03-01T06:29:53;3.35;;;2.45;;
69325;SDS011;56471;53.508;49.252;2023-03-01T06:32:19;3.75;;;2.40;;
69325;SDS011;56471;53.508;49.252;2023-03-01T06:34:44;3.38;;;2.45;;
69325;SDS011;56471;53.508;49.252;2023-03-01T06:37:10;3.97;;;2.40;;
69325;SDS011;56471;53.508;49.252;2023-03-01T06:39:36;2.83;;;2.10;;
69325;SDS011;56471;53.508;49.252;2023-03-01T06:42:01;2.17;;;1.80;;
69325;SDS011;56471;53.508;49.252;2023-03-01T06:44:27;2.60;;;1.67;;
69325;SDS011;56471;53.508;49.252;2023-03-01T06:46:53;2.72;;;1.65;;
69325;SDS011;56471;53.508;49.252;2023-03-01T06:49:19;2.22;;;1.40;;
69325;SDS011;56471;53.508;49.252;2023-03-01T06:51:45;3.00;;;1.60;;
69325;SDS011;56471;53.508;49.252;2023-03-01T06:54:11;2.22;;;1.38;;
69325;SDS011;56471;53.508;49.252;2023-03-01T06:56:37;1.40;;;1.30;;
69325;SDS011;56471;53.508;49.252;2023-03-01T06:59:02;1.83;;;1.25;;
69325;SDS011;56471;53.508;49.252;2023-03-01T07:01:29;1.85;;;1.40;;
69325;SDS011;56471;53.508;49.252;2023-03-01T07:03:55;2.25;;;1.30;;
69325;SDS011;56471;53.508;49.252;2023-03-01T07:06:21;1.40;;;1.10;;
69325;SDS011;56471;53.508;49.252;2023-03-01T07:08:47;1.50;;;1.23;;
69325;SDS011;56471;53.508;49.252;2023-03-01T07:11:13;2.63;;;1.38;;
69325;SDS011;56471;53.508;49.252;2023-03-01T07:13:38;1.85;;;1.30;;
69325;SDS011;56471;53.508;49.252;2023-03-01T07:16:04;1.50;;;1.25;;
69325;SDS011;56471;53.508;49.252;2023-03-01T07:18:30;2.58;;;1.10;;
69325;SDS011;56471;53.508;49.252;2023-03-01T07:20:56;1.50;;;1.10;;
69325;SDS011;56471;53.508;49.252;2023-03-01T07:23:21;2.00;;;1.38;;
69325;SDS011;56471;53.508;49.252;2023-03-01T07:25:53;1.40;;;1.27;;
69325;SDS011;56471;53.508;49.252;2023-03-01T07:28:20;1.60;;;1.10;;
69325;SDS011;56471;53.508;49.252;2023-03-01T07:30:47;1.50;;;1.40;;
69325;SDS011;56471;53.508;49.252;2023-03-01T07:33:13;2.42;;;1.30;;
69325;SDS011;56471;53.508;49.252;2023-03-01T07:35:38;2.67;;;1.30;;
69325;SDS011;56471;53.508;49.252;2023-03-01T07:38:04;1.92;;;1.23;;
69325;SDS011;56471;53.508;49.252;2023-03-01T07:40:30;2.10;;;1.40;;
69325;SDS011;56471;53.508;49.252;2023-03-01T07:42:56;1.48;;;1.25;;
69325;SDS011;56471;53.508;49.252;2023-03-01T07:45:23;2.58;;;1.30;;
69325;SDS011;56471;53.508;49.252;2023-03-01T07:47:50;1.75;;;1.20;;
69325;SDS011;56471;53.508;49.252;2023-03-01T07:50:16;1.73;;;1.45;;
69325;SDS011;56471;53.508;49.252;2023-03-01T07:52:44;2.15;;;1.38;;
69325;SDS011;56471;53.508;49.252;2023-03-01T07:55:11;1.20;;;1.02;;
69325;SDS011;56471;53.508;49.252;2023-03-01T07:57:37;1.70;;;1.10;;
69325;SDS011;56471;53.508;49.252;2023-03-01T08:00:03;1.38;;;1.00;;
69325;SDS011;56471;53.508;49.252;2023-03-01T08:02:30;1.85;;;1.00;;
69325;SDS011;56471;53.508;49.252;2023-03-01T08:04:56;2.20;;;1.20;;
69325;SDS011;56471;53.508;49.252;2023-03-01T08:07:22;2.33;;;0.90;;
69325;SDS011;56471;53.508;49.252;2023-03-01T08:09:47;1.83;;;1.00;;
69325;SDS011;56471;53.508;49.252;2023-03-01T08:12:13;1.55;;;1.00;;
69325;SDS011;56471;53.508;49.252;2023-03-01T08:14:41;1.35;;;0.95;;
69325;SDS011;56471;53.508;49.252;2023-03-01T08:17:07;1.40;;;1.00;;
69325;SDS011;56471;53.508;49.252;2023-03-01T08:19:32;0.93;;;0.80;;
69325;SDS011;56471;53.508;49.252;2023-03-01T08:22:00;1.60;;;1.10;;
69325;SDS011;56471;53.508;49.252;2023-03-01T08:24:27;1.50;;;1.13;;
69325;SDS011;56471;53.508;49.252;2023-03-01T08:26:53;1.35;;;0.90;;
69325;SDS011;56471;53.508;49.252;2023-03-01T08:29:19;1.58;;;1.10;;
69325;SDS011;56471;53.508;49.252;2023-03-01T08:31:45;1.90;;;0.88;;
69325;SDS011;56471;53.508;49.252;2023-03-01T08:34:12;1.40;;;0.90;;
69325;SDS011;56471;53.508;49.252;2023-03-01T08:36:40;2.13;;;0.82;;
69325;SDS011;56471;53.508;49.252;2023-03-01T08:39:08;1.75;;;0.90;;
69325;SDS011;56471;53.508;49.252;2023-03-01T08:41:35;2.58;;;1.10;;
69325;SDS011;56471;53.508;49.252;2023-03-01T08:44:02;1.20;;;0.98;;
69325;SDS011;56471;53.508;49.252;2023-03-01T08:46:29;1.10;;;0.82;;
69325;SDS011;56471;53.508;49.252;2023-03-01T08:48:56;2.10;;;0.90;;
69325;SDS011;56471;53.508;49.252;2023-03-01T08:51:23;1.50;;;0.70;;
69325;SDS011;56471;53.508;49.252;2023-03-01T08:53:49;2.75;;;0.80;;
69325;SDS011;56471;53.508;49.252;2023-03-01T08:56:15;1.08;;;0.95;;
69325;SDS011;56471;53.508;49.252;2023-03-01T08:58:44;2.15;;;0.90;;
69325;SDS011;56471;53.508;49.252;2023-03-01T09:01:11;2.00;;;0.88;;
69325;SDS011;56471;53.508;49.252;2023-03-01T09:03:37;1.25;;;0.85;;
69325;SDS011;56471;53.508;49.252;2023-03-01T09:06:04;2.65;;;0.80;;
69325;SDS011;56471;53.508;49.252;2023-03-01T09:08:34;1.27;;;0.82;;
69325;SDS011;56471;53.508;49.252;2023-03-01T09:11:01;1.52;;;0.80;;
69325;SDS011;56471;53.508;49.252;2023-03-01T09:13:28;1.55;;;0.85;;
69325;SDS011;56471;53.508;49.252;2023-03-01T09:15:56;1.50;;;0.90;;
69325;SDS011;56471;53.508;49.252;2023-03-01T09:18:23;1.15;;;0.82;;
69325;SDS011;56471;53.508;49.252;2023-03-01T09:20:49;2.20;;;0.80;;
69325;SDS011;56471;53.508;49.252;2023-03-01T09:23:14;2.15;;;0.82;;
69325;SDS011;56471;53.508;49.252;2023-03-01T09:25:40;1.33;;;0.70;;
69325;SDS011;56471;53.508;49.252;2023-03-01T09:28:05;266.60;;;171.38;;
69325;SDS011;56471;53.508;49.252;2023-03-01T09:30:31;543.38;;;360.67;;
69325;SDS011;56471;53.508;49.252;2023-03-01T09:32:57;581.00;;;391.25;;
69325;SDS011;56471;53.508;49.252;2023-03-01T09:35:22;559.97;;;376.58;;
69325;SDS011;56471;53.508;49.252;2023-03-01T09:37:48;494.63;;;327.13;;
69325;SDS011;56471;53.508;49.252;2023-03-01T09:40:19;449.73;;;292.52;;
69325;SDS011;56471;53.508;49.252;2023-03-01T09:45:53;352.10;;;214.75;;
69325;SDS011;56471;53.508;49.252;2023-03-01T09:48:21;311.02;;;182.10;;
69325;SDS011;56471;53.508;49.252;2023-03-01T09:50:50;273.70;;;156.15;;
69325;SDS011;56471;53.508;49.252;2023-03-01T09:53:18;232.15;;;131.40;;
69325;SDS011;56471;53.508;49.252;2023-03-01T09:55:51;218.40;;;123.32;;
69325;SDS011;56471;53.508;49.252;2023-03-01T09:58:32;179.95;;;104.00;;
69325;SDS011;56471;53.508;49.252;2023-03-01T10:03:53;142.88;;;80.15;;
69325;SDS011;56471;53.508;49.252;2023-03-01T10:06:29;129.30;;;70.05;;
69325;SDS011;56471;53.508;49.252;2023-03-01T10:09:00;112.88;;;59.00;;
69325;SDS011;56471;53.508;49.252;2023-03-01T10:11:32;104.97;;;55.72;;
69325;SDS011;56471;53.508;49.252;2023-03-01T10:19:31;84.43;;;42.38;;
69325;SDS011;56471;53.508;49.252;2023-03-01T10:24:53;73.00;;;36.30;;
69325;SDS011;56471;53.508;49.252;2023-03-01T10:27:26;70.53;;;33.70;;
69325;SDS011;56471;53.508;49.252;2023-03-01T10:30:13;316.52;;;215.52;;
69325;SDS011;56471;53.508;49.252;2023-03-01T10:32:46;606.35;;;440.30;;
69325;SDS011;56471;53.508;49.252;2023-03-01T10:35:17;559.13;;;401.92;;
69325;SDS011;56471;53.508;49.252;2023-03-01T10:37:57;552.00;;;392.83;;
69325;SDS011;56471;53.508;49.252;2023-03-01T10:40:27;520.70;;;359.27;;
69325;SDS011;56471;53.508;49.252;2023-03-01T10:42:53;495.02;;;344.60;;
69325;SDS011;56471;53.508;49.252;2023-03-01T10:48:04;462.13;;;320.05;;
69325;SDS011;56471;53.508;49.252;2023-03-01T10:50:30;444.23;;;308.27;;
69325;SDS011;56471;53.508;49.252;2023-03-01T10:53:00;417.80;;;288.25;;
69325;SDS011;56471;53.508;49.252;2023-03-01T10:55:34;396.25;;;266.20;;
69325;SDS011;56471;53.508;49.252;2023-03-01T11:00:59;357.80;;;233.82;;
69325;SDS011;56471;53.508;49.252;2023-03-01T11:03:31;313.90;;;200.73;;
69325;SDS011;56471;53.508;49.252;2023-03-01T11:06:19;272.42;;;163.18;;
69325;SDS011;56471;53.508;49.252;2023-03-01T11:08:48;252.70;;;153.10;;
69325;SDS011;56471;53.508;49.252;2023-03-01T11:14:00;194.73;;;117.85;;
69325;SDS011;56471;53.508;49.252;2023-03-01T11:16:32;169.23;;;102.65;;
69325;SDS011;56471;53.508;49.252;2023-03-01T11:21:34;137.63;;;81.30;;
69325;SDS011;56471;53.508;49.252;2023-03-01T11:24:20;131.75;;;76.47;;
69325;SDS011;56471;53.508;49.252;2023-03-01T11:26:54;113.35;;;64.47;;
69325;SDS011;56471;53.508;49.252;2023-03-01T11:29:32;107.20;;;60.38;;
69325;SDS011;56471;53.508;49.252;2023-03-01T11:32:07;106.00;;;58.80;;
69325;SDS011;56471;53.508;49.252;2023-03-01T11:34:43;141.27;;;84.13;;
69325;SDS011;56471;53.508;49.252;2023-03-01T11:45:13;81.00;;;39.83;;
69325;SDS011;56471;53.508;49.252;2023-03-01T11:50:15;52.13;;;26.63;;
69325;SDS011;56471;53.508;49.252;2023-03-01T11:56:23;35.83;;;18.67;;
69325;SDS011;56471;53.508;49.252;2023-03-01T11:58:41;28.48;;;15.98;;
69325;SDS011;56471;53.508;49.252;2023-03-01T12:04:00;21.83;;;12.80;;
69325;SDS011;56471;53.508;49.252;2023-03-01T12:06:50;23.42;;;11.75;;
69325;SDS011;56471;53.508;49.252;2023-03-01T12:09:26;16.38;;;9.52;;
69325;SDS011;56471;53.508;49.252;2023-03-01T12:12:22;15.75;;;8.80;;
69325;SDS011;56471;53.508;49.252;2023-03-01T12:17:40;11.80;;;7.05;;
69325;SDS011;56471;53.508;49.252;2023-03-01T12:20:20;8.60;;;5.35;;
69325;SDS011;56471;53.508;49.252;2023-03-01T12:25:41;7.32;;;4.20;;
69325;SDS011;56471;53.508;49.252;2023-03-01T12:44:30;18.40;;;7.30;;
69325;SDS011;56471;53.508;49.252;2023-03-01T12:47:11;16.20;;;7.68;;
69325;SDS011;56471;53.508;49.252;2023-03-01T12:49:52;225.05;;;137.05;;
69325;SDS011;56471;53.508;49.252;2023-03-01T12:52:42;470.65;;;311.27;;
69325;SDS011;56471;53.508;49.252;2023-03-01T12:58:03;196.07;;;96.65;;
69325;SDS011;56471;53.508;49.252;2023-03-01T13:04:03;628.50;;;408.27;;
69325;SDS011;56471;53.508;49.252;2023-03-01T13:15:30;405.35;;;231.98;;
69325;SDS011;56471;53.508;49.252;2023-03-01T13:31:06;109.75;;;56.30;;
69325;SDS011;56471;53.508;49.252;2023-03-01T13:33:33;96.85;;;46.20;;
69325;SDS011;56471;53.508;49.252;2023-03-01T13:36:07;83.82;;;38.40;;
69325;SDS011;56471;53.508;49.252;2023-03-01T13:41:17;58.45;;;26.20;;
69325;SDS011;56471;53.508;49.252;2023-03-01T13:44:28;46.75;;;21.48;;
69325;SDS011;56471;53.508;49.252;2023-03-01T13:55:06;794.45;;;561.58;;
69325;SDS011;56471;53.508;49.252;2023-03-01T13:57:39;686.70;;;480.80;;
69325;SDS011;56471;53.508;49.252;2023-03-01T14:00:07;583.83;;;397.92;;
69325;SDS011;56471;53.508;49.252;2023-03-01T14:03:33;498.63;;;327.83;;
69325;SDS011;56471;53.508;49.252;2023-03-01T14:05:56;415.55;;;262.83;;
69325;SDS011;56471;53.508;49.252;2023-03-01T14:08:33;349.98;;;214.10;;
69325;SDS011;56471;53.508;49.252;2023-03-01T14:14:07;225.25;;;127.18;;
69325;SDS011;56471;53.508;49.252;2023-03-01T14:24:52;459.17;;;277.60;;
69325;SDS011;56471;53.508;49.252;2023-03-01T14:27:18;406.95;;;231.38;;
69325;SDS011;56471;53.508;49.252;2023-03-01T14:29:54;338.77;;;178.77;;
69325;SDS011;56471;53.508;49.252;2023-03-01T14:32:25;277.38;;;140.88;;
69325;SDS011;56471;53.508;49.252;2023-03-01T14:34:53;288.27;;;162.07;;
69325;SDS011;56471;53.508;49.252;2023-03-01T14:37:24;836.72;;;609.42;;
69325;SDS011;56471;53.508;49.252;2023-03-01T14:39:52;611.80;;;422.05;;
69325;SDS011;56471;53.508;49.252;2023-03-01T14:42:19;458.55;;;289.23;;
69325;SDS011;56471;53.508;49.252;2023-03-01T14:44:47;294.48;;;150.50;;
69325;SDS011;56471;53.508;49.252;2023-03-01T14:47:17;162.57;;;77.00;;
69325;SDS011;56471;53.508;49.252;2023-03-01T14:49:57;94.88;;;39.72;;
69325;SDS011;56471;53.508;49.252;2023-03-01T14:52:37;54.22;;;20.35;;
69325;SDS011;56471;53.508;49.252;2023-03-01T14:57:42;24.35;;;9.80;;
69325;SDS011;56471;53.508;49.252;2023-03-01T15:00:21;17.80;;;8.10;;
69325;SDS011;56471;53.508;49.252;2023-03-01T15:02:50;15.48;;;6.72;;
69325;SDS011;56471;53.508;49.252;2023-03-01T15:05:26;11.45;;;5.18;;
69325;SDS011;56471;53.508;49.252;2023-03-01T15:07:55;10.00;;;4.50;;
69325;SDS011;56471;53.508;49.252;2023-03-01T15:10:26;9.65;;;4.10;;
69325;SDS011;56471;53.508;49.252;2023-03-01T15:13:19;7.43;;;3.33;;
69325;SDS011;56471;53.508;49.252;2023-03-01T15:15:47;542.58;;;317.55;;
69325;SDS011;56471;53.508;49.252;2023-03-01T15:18:22;459.65;;;259.38;;
69325;SDS011;56471;53.508;49.252;2023-03-01T15:20:51;383.95;;;197.10;;
69325;SDS011;56471;53.508;49.252;2023-03-01T15:25:48;270.15;;;129.70;;
69325;SDS011;56471;53.508;49.252;2023-03-01T15:28:32;241.45;;;118.50;;
69325;SDS011;56471;53.508;49.252;2023-03-01T15:31:36;217.50;;;107.28;;
69325;SDS011;56471;53.508;49.252;2023-03-01T15:36:45;163.38;;;80.88;;
69325;SDS011;56471;53.508;49.252;2023-03-01T15:42:47;121.57;;;57.00;;
69325;SDS011;56471;53.508;49.252;2023-03-01T15:45:06;103.60;;;47.88;;
69325;SDS011;56471;53.508;49.252;2023-03-01T15:47:56;91.07;;;39.00;;
69325;SDS011;56471;53.508;49.252;2023-03-01T15:52:54;59.63;;;25.33;;
69325;SDS011;56471;53.508;49.252;2023-03-01T15:55:25;49.40;;;20.85;;
69325;SDS011;56471;53.508;49.252;2023-03-01T15:58:13;43.00;;;18.70;;
69325;SDS011;56471;53.508;49.252;2023-03-01T16:00:47;34.13;;;14.60;;
69325;SDS011;56471;53.508;49.252;2023-03-01T16:03:16;28.10;;;11.95;;
69325;SDS011;56471;53.508;49.252;2023-03-01T16:05:46;21.05;;;10.00;;
69325;SDS011;56471;53.508;49.252;2023-03-01T16:08:13;19.73;;;8.35;;
69325;SDS011;56471;53.508;49.252;2023-03-01T16:10:40;18.52;;;7.90;;
69325;SDS011;56471;53.508;49.252;2023-03-01T16:13:09;16.38;;;6.53;;
69325;SDS011;56471;53.508;49.252;2023-03-01T16:15:35;12.05;;;5.78;;
69325;SDS011;56471;53.508;49.252;2023-03-01T16:18:01;12.00;;;5.20;;
69325;SDS011;56471;53.508;49.252;2023-03-01T16:20:28;12.13;;;4.70;;
69325;SDS011;56471;53.508;49.252;2023-03-01T16:22:57;11.18;;;4.53;;
69325;SDS011;56471;53.508;49.252;2023-03-01T16:25:26;7.43;;;3.53;;
69325;SDS011;56471;53.508;49.252;2023-03-01T16:27:52;7.63;;;3.38;;
69325;SDS011;56471;53.508;49.252;2023-03-01T16:30:20;9.98;;;3.00;;
69325;SDS011;56471;53.508;49.252;2023-03-01T16:32:47;5.75;;;3.00;;
69325;SDS011;56471;53.508;49.252;2023-03-01T16:35:15;6.85;;;2.90;;
69325;SDS011;56471;53.508;49.252;2023-03-01T16:37:43;6.18;;;2.63;;
69325;SDS011;56471;53.508;49.252;2023-03-01T16:40:19;5.00;;;2.20;;
69325;SDS011;56471;53.508;49.252;2023-03-01T16:42:52;5.50;;;2.27;;
69325;SDS011;56471;53.508;49.252;2023-03-01T16:45:18;4.05;;;2.30;;
69325;SDS011;56471;53.508;49.252;2023-03-01T16:47:44;4.88;;;2.42;;
69325;SDS011;56471;53.508;49.252;2023-03-01T16:50:10;397.30;;;214.55;;
69325;SDS011;56471;53.508;49.252;2023-03-01T16:52:36;491.95;;;299.48;;